FDB445 OMDB-OPKC
Flight info
| Callsign | FDB445 |
|---|---|
| Flight time | N/A |
| Altitude | 33000 |
| Route | IVURO1F IVURO M428 TARBO Z440 DAMUM B524 ALPOR G216 LAKIV LAKIV1B |
| Aircraft | B739/M-SDE2E3FGHIRWXY/LB1 |
Departure
| Time | N/A |
|---|---|
| Airport | Dubai International Airport (OMDB) |
Arrival
| Time | 2026-04-29 13:23 |
|---|---|
| Airport | Jinnah International Airport (OPKC) |
| Time | Latitude | Longitude | Altitude | Speed | Heading |
|---|---|---|---|---|---|
| 2026-04-29 12:23 | 22.67098 | 60.33361 | 34003 ft | 448 kts | 293° |
| 2026-04-29 12:23 | 22.69784 | 60.27260 | 34007 ft | 449 kts | 300° |
| 2026-04-29 12:24 | 22.73350 | 60.21800 | 34012 ft | 454 kts | 308° |
| 2026-04-29 12:24 | 22.77522 | 60.16632 | 33993 ft | 457 kts | 318° |
| 2026-04-29 12:25 | 22.80183 | 60.14781 | 33997 ft | 456 kts | 339° |
| 2026-04-29 12:25 | 22.83276 | 60.14038 | 34002 ft | 456 kts | 358° |
| 2026-04-29 12:25 | 22.89403 | 60.15386 | 33998 ft | 457 kts | 26° |
| 2026-04-29 12:26 | 22.92052 | 60.17273 | 34006 ft | 456 kts | 41° |
| 2026-04-29 12:26 | 22.99062 | 60.24264 | 34006 ft | 459 kts | 43° |
| 2026-04-29 12:27 | 23.17992 | 60.43200 | 33992 ft | 464 kts | 42° |
| 2026-04-29 12:27 | 23.36898 | 60.62009 | 33970 ft | 453 kts | 42° |
| 2026-04-29 12:28 | 23.55255 | 60.80360 | 34005 ft | 446 kts | 43° |
| 2026-04-29 12:28 | 23.71827 | 60.96988 | 34055 ft | 460 kts | 43° |
| 2026-04-29 12:29 | 23.76526 | 61.01716 | 34012 ft | 463 kts | 43° |
| 2026-04-29 12:29 | 23.81223 | 61.06445 | 33988 ft | 455 kts | 43° |
| 2026-04-29 12:30 | 23.85860 | 61.11118 | 34002 ft | 452 kts | 43° |
| 2026-04-29 12:30 | 23.90479 | 61.15778 | 33998 ft | 452 kts | 43° |
| 2026-04-29 12:31 | 23.95095 | 61.20441 | 34002 ft | 451 kts | 43° |
| 2026-04-29 12:31 | 23.99714 | 61.25112 | 34004 ft | 452 kts | 43° |
| 2026-04-29 12:32 | 24.04315 | 61.29772 | 34004 ft | 453 kts | 44° |
| 2026-04-29 12:32 | 24.06352 | 61.32391 | 33993 ft | 453 kts | 57° |
| 2026-04-29 12:32 | 24.07843 | 61.35436 | 34011 ft | 453 kts | 68° |
| 2026-04-29 12:32 | 24.08749 | 61.38730 | 33999 ft | 453 kts | 80° |
| 2026-04-29 12:33 | 24.09256 | 61.42132 | 34011 ft | 453 kts | 82° |
| 2026-04-29 12:33 | 24.10169 | 61.48972 | 34004 ft | 455 kts | 82° |
| 2026-04-29 12:34 | 24.11127 | 61.55836 | 34004 ft | 458 kts | 81° |
| 2026-04-29 12:34 | 24.11629 | 61.59287 | 34115 ft | 460 kts | 81° |
| 2026-04-29 12:34 | 24.12135 | 61.62737 | 34357 ft | 459 kts | 81° |
| 2026-04-29 12:34 | 24.12635 | 61.66139 | 34633 ft | 457 kts | 81° |
| 2026-04-29 12:35 | 24.13138 | 61.69567 | 34894 ft | 455 kts | 81° |
| 2026-04-29 12:35 | 24.13637 | 61.72980 | 35000 ft | 455 kts | 81° |
| 2026-04-29 12:35 | 24.14137 | 61.76411 | 35000 ft | 457 kts | 81° |
| 2026-04-29 12:36 | 24.15120 | 61.83278 | 34991 ft | 456 kts | 82° |
| 2026-04-29 12:36 | 24.16051 | 61.90133 | 35002 ft | 454 kts | 82° |
| 2026-04-29 12:37 | 24.16968 | 61.96967 | 35006 ft | 453 kts | 82° |
| 2026-04-29 12:37 | 24.17886 | 62.03792 | 35000 ft | 452 kts | 82° |
| 2026-04-29 12:38 | 24.18802 | 62.10599 | 35001 ft | 452 kts | 82° |
| 2026-04-29 12:38 | 24.19711 | 62.17364 | 34999 ft | 452 kts | 82° |
| 2026-04-29 12:39 | 24.20623 | 62.24179 | 35007 ft | 453 kts | 82° |
| 2026-04-29 12:39 | 24.21536 | 62.31028 | 35019 ft | 457 kts | 82° |
| 2026-04-29 12:40 | 24.22461 | 62.37992 | 35011 ft | 466 kts | 82° |
| 2026-04-29 12:40 | 24.23398 | 62.45074 | 35004 ft | 472 kts | 82° |
| 2026-04-29 12:41 | 24.24337 | 62.52192 | 34993 ft | 472 kts | 82° |
| 2026-04-29 12:41 | 24.25267 | 62.59268 | 34995 ft | 472 kts | 82° |
| 2026-04-29 12:42 | 24.26201 | 62.66399 | 35003 ft | 471 kts | 82° |
| 2026-04-29 12:42 | 24.27129 | 62.73514 | 34996 ft | 471 kts | 82° |
| 2026-04-29 12:43 | 24.28046 | 62.80570 | 35004 ft | 470 kts | 82° |
| 2026-04-29 12:43 | 24.28964 | 62.87654 | 35002 ft | 469 kts | 82° |
| 2026-04-29 12:44 | 24.29878 | 62.94746 | 35000 ft | 469 kts | 82° |
| 2026-04-29 12:44 | 24.30788 | 63.01820 | 34998 ft | 468 kts | 82° |
| 2026-04-29 12:45 | 24.31693 | 63.08889 | 34998 ft | 468 kts | 82° |
| 2026-04-29 12:45 | 24.32594 | 63.15956 | 35001 ft | 468 kts | 82° |
| 2026-04-29 12:46 | 24.33494 | 63.23035 | 35001 ft | 468 kts | 82° |
| 2026-04-29 12:46 | 24.34388 | 63.30101 | 34998 ft | 468 kts | 82° |
| 2026-04-29 12:47 | 24.35275 | 63.37132 | 34998 ft | 468 kts | 82° |
| 2026-04-29 12:47 | 24.36165 | 63.44216 | 35006 ft | 468 kts | 82° |
| 2026-04-29 12:48 | 24.37051 | 63.51298 | 34998 ft | 468 kts | 82° |
| 2026-04-29 12:48 | 24.37935 | 63.58385 | 35008 ft | 468 kts | 82° |
| 2026-04-29 12:49 | 24.38809 | 63.65427 | 35001 ft | 469 kts | 82° |
| 2026-04-29 12:49 | 24.39685 | 63.72509 | 34999 ft | 469 kts | 82° |
| 2026-04-29 12:50 | 24.40559 | 63.79599 | 34998 ft | 469 kts | 82° |
| 2026-04-29 12:50 | 24.41429 | 63.86689 | 35002 ft | 469 kts | 82° |
| 2026-04-29 12:51 | 24.42297 | 63.93785 | 35006 ft | 469 kts | 82° |
| 2026-04-29 12:51 | 24.43161 | 64.00881 | 35008 ft | 469 kts | 82° |
| 2026-04-29 12:52 | 24.44015 | 64.07924 | 35001 ft | 469 kts | 83° |
| 2026-04-29 12:52 | 24.44873 | 64.15024 | 35009 ft | 469 kts | 83° |
| 2026-04-29 12:53 | 24.45728 | 64.22130 | 35002 ft | 469 kts | 83° |
| 2026-04-29 12:53 | 24.46580 | 64.29234 | 34998 ft | 469 kts | 83° |
| 2026-04-29 12:54 | 24.47421 | 64.36283 | 35003 ft | 469 kts | 83° |
| 2026-04-29 12:54 | 24.48269 | 64.43416 | 35018 ft | 474 kts | 83° |
| 2026-04-29 12:55 | 24.49123 | 64.50628 | 35002 ft | 477 kts | 83° |
| 2026-04-29 12:55 | 24.49975 | 64.57854 | 35004 ft | 477 kts | 83° |
| 2026-04-29 12:56 | 24.50824 | 64.65088 | 35004 ft | 477 kts | 83° |
| 2026-04-29 12:56 | 24.51670 | 64.72319 | 35002 ft | 477 kts | 83° |
| 2026-04-29 12:57 | 24.52505 | 64.79490 | 35001 ft | 476 kts | 83° |
| 2026-04-29 12:57 | 24.53286 | 64.86706 | 34996 ft | 475 kts | 85° |
| 2026-04-29 12:58 | 24.53842 | 64.93934 | 35010 ft | 475 kts | 85° |
| 2026-04-29 12:58 | 24.54355 | 65.01110 | 35000 ft | 467 kts | 85° |
| 2026-04-29 12:59 | 24.54884 | 65.08188 | 34995 ft | 463 kts | 85° |
| 2026-04-29 12:59 | 24.55475 | 65.15866 | 35001 ft | 461 kts | 85° |
| 2026-04-29 13:00 | 24.56018 | 65.22910 | 34451 ft | 462 kts | 85° |
| 2026-04-29 13:00 | 24.56286 | 65.26403 | 33972 ft | 458 kts | 85° |
| 2026-04-29 13:00 | 24.56553 | 65.29895 | 33478 ft | 455 kts | 85° |
| 2026-04-29 13:00 | 24.56813 | 65.33308 | 32979 ft | 451 kts | 85° |
| 2026-04-29 13:01 | 24.57072 | 65.36734 | 32502 ft | 448 kts | 85° |
| 2026-04-29 13:01 | 24.57329 | 65.40129 | 32023 ft | 444 kts | 85° |
| 2026-04-29 13:01 | 24.57583 | 65.43499 | 31550 ft | 441 kts | 85° |
| 2026-04-29 13:01 | 24.57834 | 65.46842 | 31087 ft | 437 kts | 85° |
| 2026-04-29 13:02 | 24.58083 | 65.50162 | 30632 ft | 434 kts | 85° |
| 2026-04-29 13:02 | 24.58329 | 65.53455 | 30188 ft | 431 kts | 85° |
| 2026-04-29 13:02 | 24.58573 | 65.56744 | 29761 ft | 438 kts | 85° |
| 2026-04-29 13:02 | 24.58822 | 65.60147 | 27900 ft | 457 kts | 81° |
| 2026-04-29 13:03 | 24.59088 | 65.63694 | 27492 ft | 473 kts | 82° |
| 2026-04-29 13:03 | 24.59361 | 65.67312 | 27069 ft | 489 kts | 82° |
| 2026-04-29 13:03 | 24.59642 | 65.71072 | 26635 ft | 497 kts | 82° |
| 2026-04-29 13:03 | 24.59919 | 65.74858 | 26188 ft | 495 kts | 82° |
| 2026-04-29 13:04 | 24.60190 | 65.78616 | 25742 ft | 491 kts | 83° |
| 2026-04-29 13:04 | 24.60456 | 65.82339 | 25320 ft | 486 kts | 83° |
| 2026-04-29 13:04 | 24.60721 | 65.86020 | 24902 ft | 481 kts | 83° |
| 2026-04-29 13:04 | 24.60985 | 65.89691 | 24735 ft | 481 kts | 83° |
| 2026-04-29 13:05 | 24.61249 | 65.93357 | 24589 ft | 481 kts | 83° |
| 2026-04-29 13:05 | 24.61512 | 65.97017 | 24439 ft | 480 kts | 83° |
| 2026-04-29 13:05 | 24.61775 | 66.00673 | 23911 ft | 483 kts | 83° |
| 2026-04-29 13:05 | 24.62044 | 66.04418 | 23395 ft | 494 kts | 83° |
| 2026-04-29 13:06 | 24.62223 | 66.06915 | 22952 ft | 496 kts | 83° |
| 2026-04-29 13:06 | 24.62490 | 66.10694 | 22466 ft | 497 kts | 83° |
| 2026-04-29 13:06 | 24.62757 | 66.14488 | 21959 ft | 499 kts | 83° |
| 2026-04-29 13:06 | 24.63109 | 66.19513 | 21294 ft | 494 kts | 83° |
| 2026-04-29 13:07 | 24.63370 | 66.23260 | 20800 ft | 489 kts | 83° |
| 2026-04-29 13:07 | 24.63545 | 66.25768 | 20475 ft | 486 kts | 83° |
| 2026-04-29 13:07 | 24.63796 | 66.29397 | 20130 ft | 479 kts | 83° |
| 2026-04-29 13:07 | 24.64050 | 66.33044 | 19699 ft | 479 kts | 83° |
| 2026-04-29 13:08 | 24.64303 | 66.36701 | 19270 ft | 480 kts | 83° |
| 2026-04-29 13:08 | 24.64556 | 66.40354 | 18805 ft | 477 kts | 83° |
| 2026-04-29 13:08 | 24.64803 | 66.43969 | 18364 ft | 473 kts | 83° |
| 2026-04-29 13:08 | 24.65049 | 66.47563 | 17901 ft | 470 kts | 83° |
| 2026-04-29 13:09 | 24.65293 | 66.51129 | 17428 ft | 466 kts | 83° |
| 2026-04-29 13:09 | 24.65534 | 66.54682 | 16952 ft | 463 kts | 84° |
| 2026-04-29 13:09 | 24.65773 | 66.58204 | 16445 ft | 460 kts | 84° |
| 2026-04-29 13:09 | 24.66009 | 66.61700 | 15950 ft | 457 kts | 84° |
| 2026-04-29 13:10 | 24.66244 | 66.65180 | 15463 ft | 454 kts | 84° |
| 2026-04-29 13:10 | 24.66475 | 66.68624 | 14980 ft | 450 kts | 84° |
| 2026-04-29 13:10 | 24.66704 | 66.72034 | 14492 ft | 445 kts | 84° |
| 2026-04-29 13:10 | 24.66929 | 66.75411 | 14008 ft | 440 kts | 84° |
| 2026-04-29 13:11 | 24.67148 | 66.78706 | 13547 ft | 434 kts | 84° |
| 2026-04-29 13:11 | 24.67367 | 66.81998 | 13021 ft | 428 kts | 84° |
| 2026-04-29 13:11 | 24.67581 | 66.85242 | 12551 ft | 422 kts | 84° |
| 2026-04-29 13:11 | 24.67792 | 66.88442 | 12087 ft | 417 kts | 84° |
| 2026-04-29 13:12 | 24.68000 | 66.91599 | 11640 ft | 412 kts | 84° |
| 2026-04-29 13:12 | 24.68206 | 66.94735 | 11207 ft | 410 kts | 84° |
| 2026-04-29 13:12 | 24.68409 | 66.97825 | 10775 ft | 410 kts | 84° |
| 2026-04-29 13:12 | 24.68612 | 67.00950 | 10314 ft | 405 kts | 84° |
| 2026-04-29 13:13 | 24.68871 | 67.03970 | 9879 ft | 387 kts | 77° |
| 2026-04-29 13:13 | 24.69767 | 67.06643 | 9830 ft | 356 kts | 60° |
| 2026-04-29 13:13 | 24.70947 | 67.08928 | 9797 ft | 331 kts | 57° |
| 2026-04-29 13:13 | 24.72105 | 67.11019 | 9812 ft | 310 kts | 56° |
| 2026-04-29 13:14 | 24.73228 | 67.13020 | 9808 ft | 305 kts | 56° |
| 2026-04-29 13:14 | 24.74328 | 67.14993 | 9577 ft | 300 kts | 56° |
| 2026-04-29 13:14 | 24.75407 | 67.16948 | 9045 ft | 299 kts | 56° |
| 2026-04-29 13:14 | 24.76463 | 67.18878 | 8522 ft | 295 kts | 56° |
| 2026-04-29 13:15 | 24.77512 | 67.20807 | 7897 ft | 294 kts | 57° |
| 2026-04-29 13:15 | 24.78560 | 67.22739 | 7223 ft | 294 kts | 57° |
| 2026-04-29 13:15 | 24.79604 | 67.24670 | 6645 ft | 292 kts | 57° |
| 2026-04-29 13:15 | 24.80636 | 67.26582 | 6039 ft | 290 kts | 57° |
| 2026-04-29 13:16 | 24.81661 | 67.28484 | 5489 ft | 286 kts | 58° |
| 2026-04-29 13:16 | 24.82679 | 67.30373 | 4834 ft | 287 kts | 58° |
| 2026-04-29 13:16 | 24.83692 | 67.32253 | 4322 ft | 282 kts | 58° |
| 2026-04-29 13:16 | 24.84687 | 67.34102 | 3785 ft | 280 kts | 58° |
| 2026-04-29 13:17 | 24.85677 | 67.35940 | 3414 ft | 277 kts | 58° |
| 2026-04-29 13:17 | 24.86700 | 67.37727 | 3085 ft | 273 kts | 49° |
| 2026-04-29 13:17 | 24.88189 | 67.38938 | 3013 ft | 266 kts | 19° |
| 2026-04-29 13:17 | 24.89983 | 67.39310 | 2994 ft | 261 kts | 355° |
| 2026-04-29 13:18 | 24.91744 | 67.38937 | 3002 ft | 255 kts | 342° |
| 2026-04-29 13:18 | 24.93431 | 67.38428 | 2985 ft | 254 kts | 342° |
| 2026-04-29 13:18 | 24.95124 | 67.37858 | 2981 ft | 254 kts | 331° |
| 2026-04-29 13:18 | 24.96393 | 67.36602 | 3006 ft | 246 kts | 295° |
| 2026-04-29 13:19 | 24.96710 | 67.34794 | 3001 ft | 244 kts | 258° |
| 2026-04-29 13:19 | 24.95993 | 67.33122 | 2865 ft | 244 kts | 231° |
| 2026-04-29 13:19 | 24.94992 | 67.31662 | 2580 ft | 231 kts | 237° |
| 2026-04-29 13:19 | 24.94254 | 67.30154 | 2312 ft | 216 kts | 246° |
| 2026-04-29 13:20 | 24.93723 | 67.28670 | 2044 ft | 200 kts | 251° |
| 2026-04-29 13:20 | 24.93337 | 67.27278 | 1808 ft | 181 kts | 254° |
| 2026-04-29 13:20 | 24.93015 | 67.26000 | 1593 ft | 164 kts | 255° |
| 2026-04-29 13:20 | 24.92715 | 67.24805 | 1402 ft | 161 kts | 255° |
| 2026-04-29 13:21 | 24.92430 | 67.23673 | 1204 ft | 151 kts | 253° |
| 2026-04-29 13:21 | 24.92152 | 67.22573 | 1015 ft | 149 kts | 254° |
| 2026-04-29 13:21 | 24.91874 | 67.21460 | 832 ft | 152 kts | 254° |
| 2026-04-29 13:21 | 24.91596 | 67.20338 | 670 ft | 150 kts | 253° |
| 2026-04-29 13:22 | 24.91321 | 67.19218 | 455 ft | 152 kts | 251° |
| 2026-04-29 13:22 | 24.91033 | 67.18103 | 272 ft | 152 kts | 254° |
| 2026-04-29 13:22 | 24.90754 | 67.16981 | 104 ft | 148 kts | 253° |
| 2026-04-29 13:22 | 24.90514 | 67.16050 | 89 ft | 96 kts | 255° |
| 2026-04-29 13:23 | 24.90391 | 67.15562 | 88 ft | 48 kts | 254° |
| 2026-04-29 13:23 | 24.90313 | 67.15269 | 84 ft | 20 kts | 253° |
| 2026-04-29 13:23 | 24.90281 | 67.15151 | 86 ft | 15 kts | 253° |
| 2026-04-29 13:23 | 24.90260 | 67.15076 | 84 ft | 0 kts | 253° |
| 2026-04-29 13:24 | 24.90259 | 67.15075 | 84 ft | 1 kts | 252° |
| 2026-04-29 13:24 | 24.90248 | 67.15047 | 85 ft | 8 kts | 242° |
| 2026-04-29 13:24 | 24.90206 | 67.14992 | 83 ft | 10 kts | 227° |
| 2026-04-29 13:24 | 24.90161 | 67.14936 | 85 ft | 10 kts | 229° |
| 2026-04-29 13:25 | 24.90113 | 67.14886 | 84 ft | 9 kts | 219° |
| 2026-04-29 13:25 | 24.90031 | 67.14935 | 83 ft | 9 kts | 81° |
| 2026-04-29 13:25 | 24.90047 | 67.15000 | 83 ft | 9 kts | 75° |
| 2026-04-29 13:26 | 24.90065 | 67.15075 | 85 ft | 11 kts | 73° |
| 2026-04-29 13:26 | 24.90090 | 67.15167 | 85 ft | 14 kts | 74° |
| 2026-04-29 13:26 | 24.90117 | 67.15276 | 85 ft | 16 kts | 75° |
| 2026-04-29 13:26 | 24.90151 | 67.15413 | 85 ft | 22 kts | 74° |
| 2026-04-29 13:27 | 24.90197 | 67.15595 | 90 ft | 27 kts | 75° |
| 2026-04-29 13:27 | 24.90248 | 67.15792 | 89 ft | 26 kts | 75° |
| 2026-04-29 13:27 | 24.90289 | 67.15979 | 90 ft | 24 kts | 76° |
| 2026-04-29 13:27 | 24.90337 | 67.16150 | 91 ft | 23 kts | 75° |
| 2026-04-29 13:28 | 24.90379 | 67.16317 | 92 ft | 22 kts | 74° |
| 2026-04-29 13:28 | 24.90420 | 67.16479 | 92 ft | 22 kts | 75° |
| 2026-04-29 13:28 | 24.90451 | 67.16600 | 94 ft | 13 kts | 74° |
| 2026-04-29 13:28 | 24.90458 | 67.16674 | 93 ft | 9 kts | 107° |
| 2026-04-29 13:29 | 24.90405 | 67.16708 | 94 ft | 9 kts | 166° |
| 2026-04-29 13:29 | 24.90344 | 67.16726 | 94 ft | 9 kts | 164° |
| 2026-04-29 13:29 | 24.90285 | 67.16744 | 96 ft | 8 kts | 165° |
| 2026-04-29 13:29 | 24.90245 | 67.16759 | 95 ft | 6 kts | 148° |
| 2026-04-29 13:30 | 24.90229 | 67.16797 | 94 ft | 6 kts | 94° |
| 2026-04-29 13:30 | 24.90233 | 67.16834 | 95 ft | 3 kts | 81° |
| 2026-04-29 13:30 | 24.90234 | 67.16848 | 95 ft | 0 kts | 82° |